sensor_id;sensor_type;location;lat;lon;timestamp;pressure;altitude;pressure_sealevel;temperature;humidity
75425;BME280;64007;50.632;13.700;2024-02-16T00:00:59;98156.31;;;7.50;100.00
75425;BME280;64007;50.632;13.700;2024-02-16T00:03:35;98155.59;;;7.48;100.00
75425;BME280;64007;50.632;13.700;2024-02-16T00:06:00;98163.09;;;7.54;100.00
75425;BME280;64007;50.632;13.700;2024-02-16T00:08:26;98158.66;;;7.55;100.00
75425;BME280;64007;50.632;13.700;2024-02-16T00:10:52;98161.41;;;7.53;100.00
75425;BME280;64007;50.632;13.700;2024-02-16T00:13:18;98154.44;;;7.52;100.00
75425;BME280;64007;50.632;13.700;2024-02-16T00:15:43;98152.72;;;7.51;100.00
75425;BME280;64007;50.632;13.700;2024-02-16T00:18:09;98155.78;;;7.45;100.00
75425;BME280;64007;50.632;13.700;2024-02-16T00:20:35;98157.03;;;7.40;100.00
75425;BME280;64007;50.632;13.700;2024-02-16T00:23:01;98156.72;;;7.44;100.00
75425;BME280;64007;50.632;13.700;2024-02-16T00:25:26;98152.47;;;7.29;100.00
75425;BME280;64007;50.632;13.700;2024-02-16T00:27:52;98150.31;;;7.21;100.00
75425;BME280;64007;50.632;13.700;2024-02-16T00:30:22;98152.03;;;7.08;100.00
75425;BME280;64007;50.632;13.700;2024-02-16T00:32:48;98148.34;;;7.11;100.00
75425;BME280;64007;50.632;13.700;2024-02-16T00:35:16;98147.44;;;6.98;100.00
75425;BME280;64007;50.632;13.700;2024-02-16T00:37:43;98143.72;;;6.87;100.00
75425;BME280;64007;50.632;13.700;2024-02-16T00:40:09;98150.03;;;6.85;100.00
75425;BME280;64007;50.632;13.700;2024-02-16T00:42:35;98150.31;;;6.80;100.00
75425;BME280;64007;50.632;13.700;2024-02-16T00:45:01;98145.41;;;6.74;100.00
75425;BME280;64007;50.632;13.700;2024-02-16T00:47:27;98147.09;;;6.75;100.00
75425;BME280;64007;50.632;13.700;2024-02-16T00:49:53;98145.50;;;6.73;100.00
75425;BME280;64007;50.632;13.700;2024-02-16T00:52:19;98142.03;;;6.72;100.00
75425;BME280;64007;50.632;13.700;2024-02-16T00:54:44;98149.41;;;6.67;100.00
75425;BME280;64007;50.632;13.700;2024-02-16T00:57:12;98144.50;;;6.61;100.00
75425;BME280;64007;50.632;13.700;2024-02-16T00:59:41;98147.72;;;6.52;100.00
75425;BME280;64007;50.632;13.700;2024-02-16T01:02:07;98147.16;;;6.47;100.00
75425;BME280;64007;50.632;13.700;2024-02-16T01:04:34;98140.75;;;6.51;100.00
75425;BME280;64007;50.632;13.700;2024-02-16T01:07:00;98145.28;;;6.49;100.00
75425;BME280;64007;50.632;13.700;2024-02-16T01:09:26;98149.25;;;6.42;100.00
75425;BME280;64007;50.632;13.700;2024-02-16T01:11:52;98149.63;;;6.50;100.00
75425;BME280;64007;50.632;13.700;2024-02-16T01:14:18;98150.56;;;6.49;100.00
75425;BME280;64007;50.632;13.700;2024-02-16T01:16:45;98145.28;;;6.49;100.00
75425;BME280;64007;50.632;13.700;2024-02-16T01:19:11;98140.75;;;6.51;100.00
75425;BME280;64007;50.632;13.700;2024-02-16T01:21:37;98137.63;;;6.58;100.00
75425;BME280;64007;50.632;13.700;2024-02-16T01:24:02;98133.94;;;6.61;100.00
75425;BME280;64007;50.632;13.700;2024-02-16T01:26:29;98139.78;;;6.66;100.00
75425;BME280;64007;50.632;13.700;2024-02-16T01:28:55;98140.44;;;6.70;100.00
75425;BME280;64007;50.632;13.700;2024-02-16T01:31:21;98145.41;;;6.74;100.00
75425;BME280;64007;50.632;13.700;2024-02-16T01:33:46;98140.78;;;6.78;100.00
75425;BME280;64007;50.632;13.700;2024-02-16T01:36:12;98136.19;;;6.81;100.00
75425;BME280;64007;50.632;13.700;2024-02-16T01:38:37;98139.38;;;6.86;100.00
75425;BME280;64007;50.632;13.700;2024-02-16T01:41:03;98138.44;;;6.87;100.00
75425;BME280;64007;50.632;13.700;2024-02-16T01:43:30;98129.91;;;6.97;100.00
75425;BME280;64007;50.632;13.700;2024-02-16T01:45:56;98120.06;;;6.99;100.00
75425;BME280;64007;50.632;13.700;2024-02-16T01:48:24;98128.84;;;6.99;100.00
75425;BME280;64007;50.632;13.700;2024-02-16T01:50:50;98128.84;;;6.99;100.00
75425;BME280;64007;50.632;13.700;2024-02-16T01:53:16;98128.75;;;7.01;100.00
75425;BME280;64007;50.632;13.700;2024-02-16T01:55:47;98129.50;;;7.03;100.00
75425;BME280;64007;50.632;13.700;2024-02-16T01:58:13;98132.88;;;7.05;100.00
75425;BME280;64007;50.632;13.700;2024-02-16T02:00:40;98131.53;;;7.12;100.00
75425;BME280;64007;50.632;13.700;2024-02-16T02:03:08;98125.50;;;7.10;100.00
75425;BME280;64007;50.632;13.700;2024-02-16T02:05:43;98124.34;;;7.14;100.00
75425;BME280;64007;50.632;13.700;2024-02-16T02:08:10;98130.19;;;7.19;100.00
75425;BME280;64007;50.632;13.700;2024-02-16T02:10:36;98124.72;;;7.22;100.00
75425;BME280;64007;50.632;13.700;2024-02-16T02:13:02;98117.75;;;7.21;100.00
75425;BME280;64007;50.632;13.700;2024-02-16T02:15:28;98122.72;;;7.26;100.00
75425;BME280;64007;50.632;13.700;2024-02-16T02:17:53;98117.44;;;7.26;100.00
75425;BME280;64007;50.632;13.700;2024-02-16T02:20:19;98118.28;;;7.26;100.00
75425;BME280;64007;50.632;13.700;2024-02-16T02:22:45;98114.59;;;7.29;100.00
75425;BME280;64007;50.632;13.700;2024-02-16T02:25:11;98113.75;;;7.28;100.00
75425;BME280;64007;50.632;13.700;2024-02-16T02:27:37;98113.22;;;7.36;100.00
75425;BME280;64007;50.632;13.700;2024-02-16T02:30:04;98105.19;;;7.37;100.00
75425;BME280;64007;50.632;13.700;2024-02-16T02:32:30;98100.66;;;7.39;100.00
75425;BME280;64007;50.632;13.700;2024-02-16T02:34:56;98096.84;;;7.43;100.00
75425;BME280;64007;50.632;13.700;2024-02-16T02:37:22;98089.44;;;7.48;100.00
75425;BME280;64007;50.632;13.700;2024-02-16T02:39:48;98096.44;;;7.49;100.00
75425;BME280;64007;50.632;13.700;2024-02-16T02:42:14;98090.38;;;7.47;100.00
75425;BME280;64007;50.632;13.700;2024-02-16T02:44:39;98082.25;;;7.50;100.00
75425;BME280;64007;50.632;13.700;2024-02-16T02:47:06;98082.03;;;7.53;100.00
75425;BME280;64007;50.632;13.700;2024-02-16T02:49:31;98079.38;;;7.53;100.00
75425;BME280;64007;50.632;13.700;2024-02-16T02:52:00;98081.81;;;7.57;100.00
75425;BME280;64007;50.632;13.700;2024-02-16T02:54:26;98074.63;;;7.59;100.00
75425;BME280;64007;50.632;13.700;2024-02-16T02:56:52;98074.84;;;7.55;100.00
75425;BME280;64007;50.632;13.700;2024-02-16T02:59:18;98074.75;;;7.57;100.00
75425;BME280;64007;50.632;13.700;2024-02-16T03:01:44;98083.53;;;7.58;100.00
75425;BME280;64007;50.632;13.700;2024-02-16T03:04:11;98073.69;;;7.60;100.00
75425;BME280;64007;50.632;13.700;2024-02-16T03:06:37;98080.78;;;7.59;100.00
75425;BME280;64007;50.632;13.700;2024-02-16T03:09:02;98084.81;;;7.65;100.00
75425;BME280;64007;50.632;13.700;2024-02-16T03:11:28;98086.53;;;7.66;100.00
75425;BME280;64007;50.632;13.700;2024-02-16T03:13:54;98088.22;;;7.67;100.00
75425;BME280;64007;50.632;13.700;2024-02-16T03:16:20;98089.91;;;7.68;100.00
75425;BME280;64007;50.632;13.700;2024-02-16T03:18:45;98091.59;;;7.69;100.00
75425;BME280;64007;50.632;13.700;2024-02-16T03:21:14;98095.00;;;7.71;100.00
75425;BME280;64007;50.632;13.700;2024-02-16T03:23:43;98093.50;;;7.67;100.00
75425;BME280;64007;50.632;13.700;2024-02-16T03:26:18;98098.06;;;7.65;100.00
75425;BME280;64007;50.632;13.700;2024-02-16T03:28:45;98093.72;;;7.64;100.00
75425;BME280;64007;50.632;13.700;2024-02-16T03:31:21;98102.41;;;7.66;100.00
75425;BME280;64007;50.632;13.700;2024-02-16T03:33:48;98101.44;;;7.67;100.00
75425;BME280;64007;50.632;13.700;2024-02-16T03:36:14;98098.81;;;7.67;100.00
75425;BME280;64007;50.632;13.700;2024-02-16T03:38:41;98104.00;;;7.68;100.00
75425;BME280;64007;50.632;13.700;2024-02-16T03:41:09;98099.44;;;7.70;100.00
75425;BME280;64007;50.632;13.700;2024-02-16T03:43:37;98107.28;;;7.72;100.00
75425;BME280;64007;50.632;13.700;2024-02-16T03:46:02;98101.66;;;7.76;100.00
75425;BME280;64007;50.632;13.700;2024-02-16T03:48:29;98106.84;;;7.78;100.00
75425;BME280;64007;50.632;13.700;2024-02-16T03:50:55;98101.78;;;7.75;100.00
75425;BME280;64007;50.632;13.700;2024-02-16T03:53:21;98100.06;;;7.74;100.00
75425;BME280;64007;50.632;13.700;2024-02-16T03:55:46;98100.06;;;7.74;100.00
75425;BME280;64007;50.632;13.700;2024-02-16T03:58:12;98102.81;;;7.72;100.00
75425;BME280;64007;50.632;13.700;2024-02-16T04:00:38;98100.91;;;7.74;100.00
75425;BME280;64007;50.632;13.700;2024-02-16T04:03:04;98100.81;;;7.76;100.00
75425;BME280;64007;50.632;13.700;2024-02-16T04:05:29;98102.50;;;7.77;100.00
75425;BME280;64007;50.632;13.700;2024-02-16T04:07:58;98106.09;;;7.76;100.00
75425;BME280;64007;50.632;13.700;2024-02-16T04:10:27;98106.84;;;7.78;100.00
75425;BME280;64007;50.632;13.700;2024-02-16T04:12:56;98100.94;;;7.87;100.00
75425;BME280;64007;50.632;13.700;2024-02-16T04:15:22;98113.63;;;7.95;100.00
75425;BME280;64007;50.632;13.700;2024-02-16T04:17:48;98116.81;;;7.87;100.00
75425;BME280;64007;50.632;13.700;2024-02-16T04:20:18;98110.78;;;7.85;100.00
75425;BME280;64007;50.632;13.700;2024-02-16T04:22:44;98111.94;;;7.81;100.00
75425;BME280;64007;50.632;13.700;2024-02-16T04:25:10;98111.72;;;7.84;100.00
75425;BME280;64007;50.632;13.700;2024-02-16T04:27:36;98113.63;;;7.82;100.00
75425;BME280;64007;50.632;13.700;2024-02-16T04:30:03;98113.63;;;7.82;100.00
75425;BME280;64007;50.632;13.700;2024-02-16T04:32:30;98111.50;;;7.87;100.00
75425;BME280;64007;50.632;13.700;2024-02-16T04:34:55;98103.78;;;7.84;100.00
75425;BME280;64007;50.632;13.700;2024-02-16T04:37:22;98108.66;;;7.77;100.00
75425;BME280;64007;50.632;13.700;2024-02-16T04:39:49;98122.31;;;7.71;100.00
75425;BME280;64007;50.632;13.700;2024-02-16T04:42:15;98120.63;;;7.70;100.00
75425;BME280;64007;50.632;13.700;2024-02-16T04:44:41;98116.38;;;7.68;100.00
75425;BME280;64007;50.632;13.700;2024-02-16T04:47:07;98119.75;;;7.70;100.00
75425;BME280;64007;50.632;13.700;2024-02-16T04:49:32;98124.22;;;7.69;100.00
75425;BME280;64007;50.632;13.700;2024-02-16T04:51:58;98119.97;;;7.67;100.00
75425;BME280;64007;50.632;13.700;2024-02-16T04:54:24;98118.28;;;7.66;100.00
75425;BME280;64007;50.632;13.700;2024-02-16T04:56:50;98117.22;;;7.68;100.00
75425;BME280;64007;50.632;13.700;2024-02-16T04:59:16;98118.06;;;7.69;100.00
75425;BME280;64007;50.632;13.700;2024-02-16T05:01:43;98130.47;;;7.68;100.00
75425;BME280;64007;50.632;13.700;2024-02-16T05:04:10;98122.63;;;7.67;100.00
75425;BME280;64007;50.632;13.700;2024-02-16T05:06:39;98123.38;;;7.69;100.00
75425;BME280;64007;50.632;13.700;2024-02-16T05:09:05;98121.66;;;7.68;100.00
75425;BME280;64007;50.632;13.700;2024-02-16T05:11:34;98124.41;;;7.66;100.00
75425;BME280;64007;50.632;13.700;2024-02-16T05:14:00;98120.94;;;7.66;100.00
75425;BME280;64007;50.632;13.700;2024-02-16T05:16:26;98116.59;;;7.65;100.00
75425;BME280;64007;50.632;13.700;2024-02-16T05:18:52;98117.00;;;7.71;100.00
75425;BME280;64007;50.632;13.700;2024-02-16T05:21:18;98116.16;;;7.71;100.00
75425;BME280;64007;50.632;13.700;2024-02-16T05:23:43;98116.38;;;7.68;100.00
75425;BME280;64007;50.632;13.700;2024-02-16T05:26:09;98113.94;;;7.65;100.00
75425;BME280;64007;50.632;13.700;2024-02-16T05:28:34;98126.22;;;7.66;100.00
75425;BME280;64007;50.632;13.700;2024-02-16T05:31:13;98128.66;;;7.69;100.00
75425;BME280;64007;50.632;13.700;2024-02-16T05:33:41;98119.44;;;7.62;100.00
75425;BME280;64007;50.632;13.700;2024-02-16T05:36:07;98126.75;;;7.71;100.00
75425;BME280;64007;50.632;13.700;2024-02-16T05:38:32;98125.38;;;7.78;100.00
75425;BME280;64007;50.632;13.700;2024-02-16T05:41:01;98125.69;;;7.73;100.00
75425;BME280;64007;50.632;13.700;2024-02-16T05:43:26;98127.06;;;7.66;100.00
75425;BME280;64007;50.632;13.700;2024-02-16T05:45:52;98120.19;;;7.64;100.00
75425;BME280;64007;50.632;13.700;2024-02-16T05:48:17;98116.13;;;7.58;100.00
75425;BME280;64007;50.632;13.700;2024-02-16T05:50:45;98113.38;;;7.60;100.00
75425;BME280;64007;50.632;13.700;2024-02-16T05:53:10;98115.28;;;7.58;100.00
75425;BME280;64007;50.632;13.700;2024-02-16T05:55:37;98111.69;;;7.59;100.00
75425;BME280;64007;50.632;13.700;2024-02-16T05:58:02;98103.84;;;7.57;100.00
75425;BME280;64007;50.632;13.700;2024-02-16T06:00:34;98102.72;;;7.61;100.00
75425;BME280;64007;50.632;13.700;2024-02-16T06:03:00;98113.38;;;7.60;100.00
75425;BME280;64007;50.632;13.700;2024-02-16T06:05:26;98116.22;;;7.57;100.00
75425;BME280;64007;50.632;13.700;2024-02-16T06:07:53;98124.38;;;7.53;100.00
75425;BME280;64007;50.632;13.700;2024-02-16T06:10:19;98123.31;;;7.56;100.00
75425;BME280;64007;50.632;13.700;2024-02-16T06:12:44;98126.06;;;7.54;100.00
75425;BME280;64007;50.632;13.700;2024-02-16T06:15:10;98129.66;;;7.53;100.00
75425;BME280;64007;50.632;13.700;2024-02-16T06:17:36;98129.47;;;7.57;100.00
75425;BME280;64007;50.632;13.700;2024-02-16T06:20:03;98132.22;;;7.55;100.00
75425;BME280;64007;50.632;13.700;2024-02-16T06:22:30;98128.91;;;7.51;100.00
75425;BME280;64007;50.632;13.700;2024-02-16T06:24:57;98124.38;;;7.53;100.00
75425;BME280;64007;50.632;13.700;2024-02-16T06:27:23;98136.84;;;7.51;100.00
75425;BME280;64007;50.632;13.700;2024-02-16T06:29:49;98135.06;;;7.52;100.00
75425;BME280;64007;50.632;13.700;2024-02-16T06:32:15;98131.56;;;7.51;100.00
75425;BME280;64007;50.632;13.700;2024-02-16T06:34:42;98145.75;;;7.50;100.00
75425;BME280;64007;50.632;13.700;2024-02-16T06:37:08;98144.25;;;7.46;100.00
75425;BME280;64007;50.632;13.700;2024-02-16T06:39:34;98149.53;;;7.46;100.00
75425;BME280;64007;50.632;13.700;2024-02-16T06:41:59;98151.44;;;7.44;100.00
75425;BME280;64007;50.632;13.700;2024-02-16T06:44:26;98153.25;;;7.44;100.00
75425;BME280;64007;50.632;13.700;2024-02-16T06:46:51;98153.03;;;7.47;100.00
75425;BME280;64007;50.632;13.700;2024-02-16T06:49:17;98154.84;;;7.46;100.00
75425;BME280;64007;50.632;13.700;2024-02-16T06:51:43;98157.69;;;7.43;100.00
75425;BME280;64007;50.632;13.700;2024-02-16T06:54:10;98158.63;;;7.42;100.00
75425;BME280;64007;50.632;13.700;2024-02-16T06:56:36;98151.66;;;7.41;100.00
75425;BME280;64007;50.632;13.700;2024-02-16T06:59:02;98149.94;;;7.40;100.00
75425;BME280;64007;50.632;13.700;2024-02-16T07:01:28;98153.34;;;7.42;100.00
75425;BME280;64007;50.632;13.700;2024-02-16T07:03:54;98154.19;;;7.43;100.00
75425;BME280;64007;50.632;13.700;2024-02-16T07:06:20;98160.34;;;7.43;100.00
75425;BME280;64007;50.632;13.700;2024-02-16T07:08:46;98154.84;;;7.46;100.00
75425;BME280;64007;50.632;13.700;2024-02-16T07:11:12;98147.84;;;7.45;100.00
75425;BME280;64007;50.632;13.700;2024-02-16T07:13:39;98162.56;;;7.49;100.00
75425;BME280;64007;50.632;13.700;2024-02-16T07:16:06;98156.53;;;7.47;100.00
75425;BME280;64007;50.632;13.700;2024-02-16T07:18:33;98161.81;;;7.47;100.00
75425;BME280;64007;50.632;13.700;2024-02-16T07:20:58;98161.81;;;7.47;100.00
75425;BME280;64007;50.632;13.700;2024-02-16T07:23:25;98176.66;;;7.50;100.00
75425;BME280;64007;50.632;13.700;2024-02-16T07:25:51;98167.13;;;7.47;100.00
75425;BME280;64007;50.632;13.700;2024-02-16T07:28:20;98164.69;;;7.44;100.00
75425;BME280;64007;50.632;13.700;2024-02-16T07:30:47;98162.03;;;7.44;100.00
75425;BME280;64007;50.632;13.700;2024-02-16T07:33:12;98163.72;;;7.45;100.00
75425;BME280;64007;50.632;13.700;2024-02-16T07:35:38;98162.22;;;7.41;100.00
75425;BME280;64007;50.632;13.700;2024-02-16T07:38:05;98166.38;;;7.45;100.00
75425;BME280;64007;50.632;13.700;2024-02-16T07:40:30;98161.81;;;7.47;100.00
75425;BME280;64007;50.632;13.700;2024-02-16T07:42:57;98166.25;;;7.47;100.00
75425;BME280;64007;50.632;13.700;2024-02-16T07:45:22;98165.97;;;7.51;100.00
75425;BME280;64007;50.632;13.700;2024-02-16T07:47:48;98159.31;;;7.59;100.00
75425;BME280;64007;50.632;13.700;2024-02-16T07:50:18;98162.31;;;7.67;100.00
75425;BME280;64007;50.632;13.700;2024-02-16T07:52:44;98154.91;;;7.72;100.00
75425;BME280;64007;50.632;13.700;2024-02-16T07:55:09;98151.84;;;7.78;100.00
75425;BME280;64007;50.632;13.700;2024-02-16T07:57:36;98159.59;;;7.81;100.00
75425;BME280;64007;50.632;13.700;2024-02-16T08:00:05;98166.25;;;7.86;100.00
75425;BME280;64007;50.632;13.700;2024-02-16T08:02:31;98160.84;;;7.88;100.00
75425;BME280;64007;50.632;13.700;2024-02-16T08:04:58;98166.78;;;7.92;100.00
75425;BME280;64007;50.632;13.700;2024-02-16T08:07:24;98164.03;;;7.93;100.00
75425;BME280;64007;50.632;13.700;2024-02-16T08:09:49;98167.22;;;7.98;100.00
75425;BME280;64007;50.632;13.700;2024-02-16T08:12:15;98166.59;;;7.95;100.00
75425;BME280;64007;50.632;13.700;2024-02-16T08:14:42;98164.03;;;7.93;100.00
75425;BME280;64007;50.632;13.700;2024-02-16T08:17:09;98175.06;;;7.87;100.00
75425;BME280;64007;50.632;13.700;2024-02-16T08:19:36;98176.75;;;7.88;100.00
75425;BME280;64007;50.632;13.700;2024-02-16T08:22:03;98171.44;;;7.88;100.00
75425;BME280;64007;50.632;13.700;2024-02-16T08:24:32;98174.31;;;7.85;100.00
75425;BME280;64007;50.632;13.700;2024-02-16T08:26:58;98178.00;;;7.82;100.00
75425;BME280;64007;50.632;13.700;2024-02-16T08:29:24;98177.38;;;7.79;100.00
75425;BME280;64007;50.632;13.700;2024-02-16T08:31:51;98173.66;;;7.81;100.00
75425;BME280;64007;50.632;13.700;2024-02-16T08:34:17;98179.69;;;7.83;100.00
75425;BME280;64007;50.632;13.700;2024-02-16T08:36:44;98171.66;;;7.85;100.00
75425;BME280;64007;50.632;13.700;2024-02-16T08:39:10;98174.19;;;7.86;100.00
75425;BME280;64007;50.632;13.700;2024-02-16T08:41:39;98174.09;;;7.88;100.00
75425;BME280;64007;50.632;13.700;2024-02-16T08:44:06;98174.63;;;7.93;100.00
75425;BME280;64007;50.632;13.700;2024-02-16T08:46:38;98174.63;;;7.93;100.00
75425;BME280;64007;50.632;13.700;2024-02-16T08:49:04;98176.84;;;7.99;100.00
75425;BME280;64007;50.632;13.700;2024-02-16T08:51:34;98178.06;;;8.08;100.00
75425;BME280;64007;50.632;13.700;2024-02-16T08:54:00;98169.38;;;8.18;100.00
75425;BME280;64007;50.632;13.700;2024-02-16T08:56:27;98172.78;;;8.33;100.00
75425;BME280;64007;50.632;13.700;2024-02-16T08:58:53;98174.03;;;8.28;100.00
75425;BME280;64007;50.632;13.700;2024-02-16T09:01:18;98177.41;;;8.30;100.00
75425;BME280;64007;50.632;13.700;2024-02-16T09:03:44;98180.63;;;8.35;100.00
75425;BME280;64007;50.632;13.700;2024-02-16T09:06:10;98175.97;;;8.38;100.00
75425;BME280;64007;50.632;13.700;2024-02-16T09:08:36;98182.09;;;8.39;100.00
75425;BME280;64007;50.632;13.700;2024-02-16T09:11:02;98175.13;;;8.38;100.00
75425;BME280;64007;50.632;13.700;2024-02-16T09:13:35;98173.03;;;8.43;100.00
75425;BME280;64007;50.632;13.700;2024-02-16T09:16:02;98169.63;;;8.41;100.00
75425;BME280;64007;50.632;13.700;2024-02-16T09:18:29;98169.41;;;8.44;100.00
75425;BME280;64007;50.632;13.700;2024-02-16T09:20:55;98162.00;;;8.49;100.00
75425;BME280;64007;50.632;13.700;2024-02-16T09:23:20;98166.66;;;8.45;100.00
75425;BME280;64007;50.632;13.700;2024-02-16T09:25:46;98164.63;;;8.49;100.00
75425;BME280;64007;50.632;13.700;2024-02-16T09:28:12;98181.28;;;8.51;100.00
75425;BME280;64007;50.632;13.700;2024-02-16T09:30:38;98178.63;;;8.51;100.00
75425;BME280;64007;50.632;13.700;2024-02-16T09:33:04;98179.16;;;8.56;100.00
75425;BME280;64007;50.632;13.700;2024-02-16T09:35:30;98180.84;;;8.57;100.00
75425;BME280;64007;50.632;13.700;2024-02-16T09:37:56;98178.81;;;8.61;100.00
75425;BME280;64007;50.632;13.700;2024-02-16T09:40:22;98186.97;;;8.70;100.00
75425;BME280;64007;50.632;13.700;2024-02-16T09:42:49;98181.78;;;8.69;100.00
75425;BME280;64007;50.632;13.700;2024-02-16T09:45:15;98182.53;;;8.71;100.00
75425;BME280;64007;50.632;13.700;2024-02-16T09:47:47;98183.16;;;8.74;100.00
75425;BME280;64007;50.632;13.700;2024-02-16T09:50:13;98189.06;;;8.78;100.00
75425;BME280;64007;50.632;13.700;2024-02-16T09:52:40;98194.94;;;8.83;100.00
75425;BME280;64007;50.632;13.700;2024-02-16T09:55:12;98198.44;;;8.84;100.00
75425;BME280;64007;50.632;13.700;2024-02-16T09:57:38;98192.69;;;8.90;100.00
75425;BME280;64007;50.632;13.700;2024-02-16T10:00:04;98199.97;;;8.99;100.00
75425;BME280;64007;50.632;13.700;2024-02-16T10:02:45;98201.13;;;9.07;100.00
75425;BME280;64007;50.632;13.700;2024-02-16T10:05:19;98202.78;;;9.21;100.00
75425;BME280;64007;50.632;13.700;2024-02-16T10:07:45;98212.75;;;9.18;100.00
75425;BME280;64007;50.632;13.700;2024-02-16T10:10:21;98209.34;;;9.28;100.00
75425;BME280;64007;50.632;13.700;2024-02-16T10:12:50;98214.72;;;9.39;100.00
75425;BME280;64007;50.632;13.700;2024-02-16T10:15:22;98212.41;;;9.59;100.00
75425;BME280;64007;50.632;13.700;2024-02-16T10:18:07;98209.09;;;9.68;100.00
75425;BME280;64007;50.632;13.700;2024-02-16T10:20:35;98205.50;;;9.80;100.00
75425;BME280;64007;50.632;13.700;2024-02-16T10:23:04;98208.66;;;9.85;100.00
75425;BME280;64007;50.632;13.700;2024-02-16T10:25:30;98202.41;;;9.97;100.00
75425;BME280;64007;50.632;13.700;2024-02-16T10:27:57;98202.50;;;9.85;100.00
75425;BME280;64007;50.632;13.700;2024-02-16T10:30:44;98201.50;;;9.74;100.00
75425;BME280;64007;50.632;13.700;2024-02-16T10:33:11;98194.50;;;9.73;100.00
75425;BME280;64007;50.632;13.700;2024-02-16T10:35:40;98188.84;;;9.78;100.00
75425;BME280;64007;50.632;13.700;2024-02-16T10:38:07;98196.09;;;9.76;100.00
75425;BME280;64007;50.632;13.700;2024-02-16T10:40:41;98185.47;;;9.76;100.00
75425;BME280;64007;50.632;13.700;2024-02-16T10:43:08;98191.50;;;9.78;100.00
75425;BME280;64007;50.632;13.700;2024-02-16T10:45:37;98190.50;;;9.68;100.00
75425;BME280;64007;50.632;13.700;2024-02-16T10:48:04;98190.16;;;9.72;100.00
75425;BME280;64007;50.632;13.700;2024-02-16T10:50:34;98183.72;;;9.64;100.00
75425;BME280;64007;50.632;13.700;2024-02-16T10:53:04;98181.84;;;9.53;100.00
75425;BME280;64007;50.632;13.700;2024-02-16T10:55:34;98185.56;;;9.51;100.00
75425;BME280;64007;50.632;13.700;2024-02-16T10:58:00;98176.59;;;9.40;100.00
75425;BME280;64007;50.632;13.700;2024-02-16T11:00:26;98185.88;;;9.35;100.00
75425;BME280;64007;50.632;13.700;2024-02-16T11:02:55;98183.59;;;9.41;100.00
75425;BME280;64007;50.632;13.700;2024-02-16T11:05:41;98182.63;;;9.19;100.00
75425;BME280;64007;50.632;13.700;2024-02-16T11:08:17;98184.88;;;9.12;100.00
75425;BME280;64007;50.632;13.700;2024-02-16T11:10:57;98184.41;;;9.18;100.00
75425;BME280;64007;50.632;13.700;2024-02-16T11:13:26;98178.59;;;9.13;100.00
75425;BME280;64007;50.632;13.700;2024-02-16T11:16:03;98180.53;;;9.11;100.00
75425;BME280;64007;50.632;13.700;2024-02-16T11:18:30;98178.81;;;9.10;100.00
75425;BME280;64007;50.632;13.700;2024-02-16T11:21:01;98175.44;;;9.08;100.00
75425;BME280;64007;50.632;13.700;2024-02-16T11:23:28;98169.06;;;9.10;100.00
75425;BME280;64007;50.632;13.700;2024-02-16T11:26:04;98172.34;;;9.14;100.00
75425;BME280;64007;50.632;13.700;2024-02-16T11:28:34;98174.03;;;9.15;100.00
75425;BME280;64007;50.632;13.700;2024-02-16T11:31:01;98167.53;;;9.19;100.00
75425;BME280;64007;50.632;13.700;2024-02-16T11:33:28;98166.38;;;9.23;100.00
75425;BME280;64007;50.632;13.700;2024-02-16T11:36:04;98162.44;;;9.29;100.00
75425;BME280;64007;50.632;13.700;2024-02-16T11:38:31;98153.06;;;9.36;100.00
75425;BME280;64007;50.632;13.700;2024-02-16T11:41:05;98155.16;;;9.43;100.00
75425;BME280;64007;50.632;13.700;2024-02-16T11:43:31;98154.44;;;9.53;100.00
75425;BME280;64007;50.632;13.700;2024-02-16T11:46:11;98150.59;;;9.57;100.00
75425;BME280;64007;50.632;13.700;2024-02-16T11:48:37;98156.88;;;9.56;100.00
75425;BME280;64007;50.632;13.700;2024-02-16T11:51:03;98156.75;;;9.57;100.00
75425;BME280;64007;50.632;13.700;2024-02-16T11:53:30;98155.47;;;9.63;100.00
75425;BME280;64007;50.632;13.700;2024-02-16T11:55:56;98154.28;;;9.67;100.00
75425;BME280;64007;50.632;13.700;2024-02-16T11:58:23;98154.91;;;9.70;100.00
75425;BME280;64007;50.632;13.700;2024-02-16T12:00:50;98151.66;;;9.78;100.00
75425;BME280;64007;50.632;13.700;2024-02-16T12:03:19;98143.47;;;9.81;100.00
75425;BME280;64007;50.632;13.700;2024-02-16T12:05:53;98151.22;;;9.95;100.00
75425;BME280;64007;50.632;13.700;2024-02-16T12:08:19;98155.25;;;10.01;100.00
75425;BME280;64007;50.632;13.700;2024-02-16T12:10:49;98145.31;;;9.92;100.00
75425;BME280;64007;50.632;13.700;2024-02-16T12:13:19;98147.84;;;9.93;100.00
75425;BME280;64007;50.632;13.700;2024-02-16T12:15:51;98156.78;;;9.92;100.00
75425;BME280;64007;50.632;13.700;2024-02-16T12:18:24;98158.41;;;9.71;100.00
75425;BME280;64007;50.632;13.700;2024-02-16T12:21:03;98157.94;;;9.77;100.00
75425;BME280;64007;50.632;13.700;2024-02-16T12:23:31;98151.06;;;9.74;100.00
75425;BME280;64007;50.632;13.700;2024-02-16T12:26:00;98152.63;;;9.77;100.00
75425;BME280;64007;50.632;13.700;2024-02-16T12:28:30;98160.38;;;9.80;100.00
75425;BME280;64007;50.632;13.700;2024-02-16T12:31:00;98154.22;;;9.91;100.00
75425;BME280;64007;50.632;13.700;2024-02-16T12:33:26;98149.25;;;9.75;100.00
75425;BME280;64007;50.632;13.700;2024-02-16T12:35:52;98147.56;;;9.74;100.00
75425;BME280;64007;50.632;13.700;2024-02-16T12:38:18;98144.91;;;9.74;100.00
75425;BME280;64007;50.632;13.700;2024-02-16T12:40:48;98151.53;;;9.68;100.00
75425;BME280;64007;50.632;13.700;2024-02-16T12:43:14;98151.56;;;9.80;100.00
75425;BME280;64007;50.632;13.700;2024-02-16T12:45:41;98160.56;;;9.66;100.00
75425;BME280;64007;50.632;13.700;2024-02-16T12:48:06;98149.66;;;9.58;100.00
75425;BME280;64007;50.632;13.700;2024-02-16T12:50:33;98149.75;;;9.56;100.00